Time;durP1;ratioP1;P1;durP2;ratioP2;P2;SDS_P1;SDS_P2;PMS_P1;PMS_P2;Temp;Humidity;BMP_temperature;BMP_pressure;BME280_temperature;BME280_humidity;BME280_pressure;Samples;Min_cycle;Max_cycle;Signal;HPM_P1;HPM_P2
2023/03/10 00:00:14;;;;;;;25.00;11.23;;;;;;;5.38;100.00;98564.53;5053750;28;20021;-73
2023/03/10 00:02:45;;;;;;;26.20;11.20;;;;;;;5.39;100.00;98562.72;5070569;28;20605;-72
2023/03/10 00:05:11;;;;;;;22.80;10.93;;;;;;;5.37;100.00;98568.19;5043138;28;20053;-72
2023/03/10 00:07:36;;;;;;;22.65;10.35;;;;;;;5.37;100.00;98575.31;5073387;28;20498;-73
2023/03/10 00:10:02;;;;;;;26.13;10.90;;;;;;;5.36;100.00;98568.28;5053956;28;20017;-72
2023/03/10 00:12:27;;;;;;;22.83;11.50;;;;;;;5.34;100.00;98570.25;5054396;28;20028;-72
2023/03/10 00:14:53;;;;;;;24.33;11.32;;;;;;;5.33;100.00;98573.91;5055127;28;20031;-73
2023/03/10 00:17:19;;;;;;;23.20;10.65;;;;;;;5.31;100.00;98565.22;5073505;28;20036;-72
2023/03/10 00:19:44;;;;;;;22.52;10.05;;;;;;;5.34;100.00;98567.59;5072537;28;20035;-72
2023/03/10 00:22:09;;;;;;;24.23;11.02;;;;;;;5.33;100.00;98560.56;5072224;28;20890;-72
2023/03/10 00:24:34;;;;;;;23.10;10.65;;;;;;;5.34;100.00;98560.44;5071721;28;20024;-72
2023/03/10 00:27:00;;;;;;;24.02;10.95;;;;;;;5.34;100.00;98559.59;5073201;28;20103;-72
2023/03/10 00:29:25;;;;;;;22.83;10.48;;;;;;;5.32;100.00;98553.59;5067692;28;20020;-73
2023/03/10 00:31:50;;;;;;;21.40;9.85;;;;;;;5.29;100.00;98549.38;5072845;28;20021;-72
2023/03/10 00:34:15;;;;;;;23.20;10.18;;;;;;;5.25;100.00;98548.78;5073239;28;20021;-72
2023/03/10 00:36:41;;;;;;;23.33;10.35;;;;;;;5.19;100.00;98549.31;5071858;28;20031;-72
2023/03/10 00:39:07;;;;;;;23.42;9.70;;;;;;;5.17;100.00;98555.75;5054681;28;20131;-72
2023/03/10 00:41:35;;;;;;;22.25;10.77;;;;;;;5.15;100.00;98549.75;5061901;28;20028;-72
2023/03/10 00:44:02;;;;;;;23.60;10.05;;;;;;;5.13;100.00;98557.84;5051782;28;20119;-72
2023/03/10 00:46:28;;;;;;;23.13;9.65;;;;;;;5.11;100.00;98554.50;5071741;28;20032;-72
2023/03/10 00:48:54;;;;;;;22.75;9.90;;;;;;;5.13;100.00;98555.19;5072684;28;20063;-73
2023/03/10 00:51:21;;;;;;;23.40;11.45;;;;;;;5.17;100.00;98548.63;5051656;28;20032;-72
2023/03/10 00:53:46;;;;;;;22.10;10.65;;;;;;;5.21;100.00;98555.38;5073002;28;20032;-72
2023/03/10 00:56:17;;;;;;;21.67;10.73;;;;;;;5.27;100.00;98559.31;5071518;28;20543;-72
2023/03/10 00:58:44;;;;;;;22.48;9.57;;;;;;;5.33;100.00;98558.78;5072945;28;20410;-73
2023/03/10 01:01:12;;;;;;;22.20;8.90;;;;;;;5.42;100.00;98557.94;5071165;28;20484;-72
2023/03/10 01:03:37;;;;;;;22.73;8.50;;;;;;;5.56;100.00;98564.72;5072736;28;20037;-72
2023/03/10 01:06:02;;;;;;;20.90;8.88;;;;;;;5.64;100.00;98563.19;5069934;28;20056;-72
2023/03/10 01:08:28;;;;;;;19.23;7.93;;;;;;;5.73;100.00;98563.19;5054398;28;20058;-72
2023/03/10 01:10:53;;;;;;;23.08;7.68;;;;;;;5.84;100.00;98561.38;5069608;28;20028;-72
2023/03/10 01:13:18;;;;;;;21.20;7.65;;;;;;;5.90;100.00;98555.50;5070814;28;20040;-72
2023/03/10 01:15:46;;;;;;;18.23;6.72;;;;;;;5.98;100.00;98557.53;5070977;28;20037;-72
2023/03/10 01:18:12;;;;;;;22.30;7.10;;;;;;;6.04;100.00;98555.13;5053632;28;20468;-72
2023/03/10 01:20:40;;;;;;;19.52;7.30;;;;;;;6.12;100.00;98549.94;5071636;28;20039;-72
2023/03/10 01:23:06;;;;;;;21.05;6.78;;;;;;;6.19;100.00;98546.69;5070778;28;20424;-72
2023/03/10 01:25:31;;;;;;;18.48;6.72;;;;;;;6.25;100.00;98544.31;5070430;28;20037;-72
2023/03/10 01:27:56;;;;;;;18.13;6.43;;;;;;;6.34;100.00;98539.09;5069501;28;20078;-73
2023/03/10 01:30:21;;;;;;;17.33;6.65;;;;;;;6.42;100.00;98534.72;5052448;28;20039;-72
2023/03/10 01:32:47;;;;;;;18.90;6.53;;;;;;;6.49;100.00;98535.00;5071676;28;20559;-72
2023/03/10 01:35:12;;;;;;;19.15;6.43;;;;;;;6.56;100.00;98536.13;5071668;28;20025;-73
2023/03/10 01:37:37;;;;;;;17.83;6.30;;;;;;;6.58;100.00;98534.13;5070916;28;20111;-73
2023/03/10 01:40:04;;;;;;;18.17;6.43;;;;;;;6.62;100.00;98529.38;5070788;28;20020;-72
2023/03/10 01:42:30;;;;;;;20.10;6.32;;;;;;;6.65;100.00;98527.25;5040087;28;20024;-72
2023/03/10 01:45:06;;;;;;;20.83;7.82;;;;;;;6.67;100.00;98527.09;5048904;28;20066;-72
2023/03/10 01:47:32;;;;;;;19.73;6.93;;;;;;;6.74;100.00;98520.19;5068907;28;20094;-73
2023/03/10 01:49:57;;;;;;;21.13;7.18;;;;;;;6.76;100.00;98507.53;5070284;28;20037;-73
2023/03/10 01:52:27;;;;;;;20.38;7.88;;;;;;;6.78;100.00;98513.56;5070912;28;20024;-72
2023/03/10 01:54:55;;;;;;;;;;;;;;;6.78;100.00;98510.06;5052778;28;20038;-73
2023/03/10 01:57:27;;;;;;;18.27;6.88;;;;;;;6.81;100.00;98512.44;5071300;28;19920;-72
2023/03/10 01:59:54;;;;;;;18.27;7.32;;;;;;;6.85;100.00;98508.47;5071387;28;20036;-72
2023/03/10 02:02:19;;;;;;;18.23;7.10;;;;;;;6.86;100.00;98509.34;5050510;28;20404;-73
2023/03/10 02:04:47;;;;;;;20.15;8.20;;;;;;;6.91;100.00;98499.91;5052339;28;20367;-72
2023/03/10 02:07:15;;;;;;;21.20;6.90;;;;;;;6.94;100.00;98506.75;5061441;28;20081;-72
2023/03/10 02:09:43;;;;;;;21.67;7.38;;;;;;;6.96;100.00;98513.63;5061004;28;20024;-72
2023/03/10 02:12:11;;;;;;;20.23;7.38;;;;;;;7.00;100.00;98509.69;5067658;28;20024;-73
2023/03/10 02:14:37;;;;;;;21.17;8.25;;;;;;;7.02;100.00;98508.72;5071353;28;20476;-72
2023/03/10 02:17:09;;;;;;;20.45;6.75;;;;;;;7.03;100.00;98507.69;5069831;28;20047;-73
2023/03/10 02:20:04;;;;;;;20.33;7.18;;;;;;;7.05;100.00;98498.56;5067633;28;20028;-72
2023/03/10 02:22:31;;;;;;;19.70;7.45;;;;;;;7.04;100.00;98496.03;5062532;28;20044;-73
2023/03/10 02:25:20;;;;;;;21.00;7.03;;;;;;;7.07;100.00;98490.41;5059421;28;20040;-73
2023/03/10 02:27:46;;;;;;;19.98;7.13;;;;;;;7.06;100.00;98484.22;5069451;28;20020;-72
2023/03/10 02:30:15;;;;;;;21.38;6.97;;;;;;;7.08;100.00;98476.06;5067661;28;20063;-72
2023/03/10 02:32:44;;;;;;;18.75;7.22;;;;;;;7.09;100.00;98475.09;5069002;28;20033;-72
2023/03/10 02:35:10;;;;;;;21.05;6.80;;;;;;;7.09;100.00;98475.09;5066853;28;20028;-73
2023/03/10 02:37:35;;;;;;;18.40;7.03;;;;;;;7.09;100.00;98472.41;5070246;28;20403;-72
2023/03/10 02:40:03;;;;;;;19.15;6.57;;;;;;;7.06;100.00;98472.69;5069738;28;20035;-73
2023/03/10 02:42:32;;;;;;;19.23;6.22;;;;;;;7.06;100.00;98468.19;5057327;28;20411;-73
2023/03/10 02:44:57;;;;;;;17.55;5.85;;;;;;;7.09;100.00;98472.41;5061645;28;20079;-73
2023/03/10 02:47:23;;;;;;;20.08;6.22;;;;;;;7.08;100.00;98470.72;5069798;28;20025;-73
2023/03/10 02:49:48;;;;;;;17.38;6.38;;;;;;;7.08;100.00;98463.53;5070453;28;20021;-73
2023/03/10 02:52:28;;;;;;;19.52;6.10;;;;;;;7.10;100.00;98463.38;5069297;28;20013;-72
2023/03/10 02:54:53;;;;;;;19.60;6.57;;;;;;;7.10;100.00;98458.91;5086535;28;20089;-73
2023/03/10 02:57:18;;;;;;;19.52;6.20;;;;;;;7.09;100.00;98451.03;5064756;28;20138;-73
2023/03/10 02:59:44;;;;;;;20.13;6.60;;;;;;;7.05;100.00;98444.31;5070817;28;20041;-73
2023/03/10 03:02:09;;;;;;;16.40;5.80;;;;;;;7.03;100.00;98451.63;5066014;28;20032;-73
2023/03/10 03:04:34;;;;;;;17.92;6.10;;;;;;;6.99;100.00;98456.44;5068779;28;20040;-72
2023/03/10 03:07:00;;;;;;;18.15;5.80;;;;;;;7.00;100.00;98452.78;5068370;28;20041;-73
2023/03/10 03:09:25;;;;;;;17.98;6.57;;;;;;;6.97;100.00;98440.56;5058021;28;20025;-72
2023/03/10 03:11:50;;;;;;;18.48;6.00;;;;;;;6.98;100.00;98436.91;5060763;28;20024;-73
2023/03/10 03:14:16;;;;;;;15.65;5.68;;;;;;;6.99;100.00;98435.88;5070133;28;20357;-72
2023/03/10 03:16:41;;;;;;;18.13;5.55;;;;;;;6.99;100.00;98440.41;5073957;28;20111;-72
2023/03/10 03:19:06;;;;;;;19.45;5.70;;;;;;;6.98;100.00;98439.56;5073987;28;20361;-73
2023/03/10 03:21:31;;;;;;;20.33;6.60;;;;;;;7.00;100.00;98432.25;5074214;28;20037;-72
2023/03/10 03:23:57;;;;;;;28.92;6.32;;;;;;;6.99;100.00;98429.72;5072345;28;20476;-72
2023/03/10 03:26:25;;;;;;;19.80;5.97;;;;;;;7.00;100.00;98426.91;5073075;28;20484;-73
2023/03/10 03:28:51;;;;;;;17.60;5.60;;;;;;;7.05;100.00;98430.97;5073145;28;20450;-73
2023/03/10 03:31:20;;;;;;;17.60;4.88;;;;;;;7.08;100.00;98430.66;5071926;28;20049;-73
2023/03/10 03:33:46;;;;;;;17.63;5.03;;;;;;;7.09;100.00;98429.69;5073278;28;20557;-72
2023/03/10 03:36:12;;;;;;;14.38;4.95;;;;;;;7.13;100.00;98439.03;5072732;28;20052;-73
2023/03/10 03:38:37;;;;;;;21.13;5.32;;;;;;;7.14;100.00;98433.56;5073894;28;20103;-73
2023/03/10 03:41:04;;;;;;;18.85;5.10;;;;;;;7.16;100.00;98436.09;5065592;28;20744;-73
2023/03/10 03:43:29;;;;;;;15.93;4.93;;;;;;;7.20;100.00;98432.13;5063129;28;20107;-72
2023/03/10 03:45:55;;;;;;;13.63;4.25;;;;;;;7.22;100.00;98430.16;5071026;28;20063;-73
2023/03/10 03:48:20;;;;;;;16.23;4.32;;;;;;;7.22;100.00;98429.28;5071778;28;20476;-73
2023/03/10 03:50:47;;;;;;;14.23;4.47;;;;;;;7.25;100.00;98437.03;5071493;28;20032;-72
2023/03/10 03:53:12;;;;;;;14.77;4.40;;;;;;;7.25;100.00;98431.69;5073827;28;20111;-73
2023/03/10 03:55:37;;;;;;;20.60;4.55;;;;;;;7.24;100.00;98428.16;5069306;28;20115;-72
2023/03/10 03:58:03;;;;;;;14.82;4.38;;;;;;;7.24;100.00;98422.81;5071667;28;20020;-72
2023/03/10 04:00:28;;;;;;;15.65;4.82;;;;;;;7.27;100.00;98427.84;5071923;28;20531;-72
2023/03/10 04:02:53;;;;;;;14.02;4.07;;;;;;;7.25;100.00;98423.66;5073140;28;20039;-72
2023/03/10 04:05:18;;;;;;;20.48;5.13;;;;;;;7.24;100.00;98422.81;5071000;28;20561;-72
2023/03/10 04:07:44;;;;;;;19.38;4.72;;;;;;;7.27;100.00;98419.84;5071793;28;20024;-72
2023/03/10 04:10:12;;;;;;;13.02;4.40;;;;;;;7.25;100.00;98412.97;5054000;28;20039;-72
2023/03/10 04:12:38;;;;;;;14.15;3.70;;;;;;;7.27;100.00;98416.34;5067356;28;20059;-73
2023/03/10 04:15:04;;;;;;;18.00;4.38;;;;;;;7.27;100.00;98417.16;5054748;28;20499;-73
2023/03/10 04:17:29;;;;;;;18.38;4.60;;;;;;;7.28;100.00;98413.50;5071239;28;20037;-72
2023/03/10 04:19:54;;;;;;;15.45;3.67;;;;;;;7.31;100.00;98410.53;5055156;28;20067;-73
2023/03/10 04:22:19;;;;;;;14.32;3.95;;;;;;;7.31;100.00;98407.84;5052800;28;20139;-72
2023/03/10 04:24:45;;;;;;;13.75;4.10;;;;;;;7.31;100.00;98412.38;5054996;28;20074;-72
2023/03/10 04:27:10;;;;;;;15.52;4.03;;;;;;;7.30;100.00;98411.50;5071473;28;20032;-73
2023/03/10 04:29:36;;;;;;;17.38;4.43;;;;;;;7.31;100.00;98415.88;5073101;28;20356;-72
2023/03/10 04:32:01;;;;;;;14.68;3.85;;;;;;;7.26;100.00;98411.97;5054334;28;20016;-72
2023/03/10 04:34:26;;;;;;;15.77;4.53;;;;;;;7.27;100.00;98414.50;5073292;28;20531;-73
2023/03/10 04:36:52;;;;;;;13.13;3.50;;;;;;;7.28;100.00;98407.34;5070095;28;20059;-73
2023/03/10 04:39:17;;;;;;;16.05;4.03;;;;;;;7.26;100.00;98412.84;5054834;28;20040;-72
2023/03/10 04:41:42;;;;;;;19.45;4.35;;;;;;;7.19;100.00;98398.41;5062934;28;20511;-73
2023/03/10 04:44:08;;;;;;;15.15;4.00;;;;;;;7.17;100.00;98401.22;5067205;28;20033;-72
2023/03/10 04:46:34;;;;;;;20.02;4.00;;;;;;;7.16;100.00;98394.19;5072377;28;20021;-73
2023/03/10 04:48:59;;;;;;;11.27;3.33;;;;;;;7.11;100.00;98395.63;5071568;28;20024;-72
2023/03/10 04:51:24;;;;;;;14.80;3.97;;;;;;;7.11;100.00;98396.47;5071564;28;20051;-72
2023/03/10 04:53:50;;;;;;;20.15;3.67;;;;;;;7.11;100.00;98392.97;5072964;28;20534;-73
2023/03/10 04:56:15;;;;;;;14.93;3.75;;;;;;;7.12;100.00;98394.66;5071978;28;20416;-72
2023/03/10 04:58:41;;;;;;;18.88;3.95;;;;;;;7.12;100.00;98389.31;5054525;28;20040;-73
2023/03/10 05:01:08;;;;;;;18.95;4.43;;;;;;;7.14;100.00;98395.31;5046949;28;20067;-73
2023/03/10 05:03:33;;;;;;;13.32;4.13;;;;;;;7.14;100.00;98395.31;5071986;28;20025;-73
2023/03/10 05:05:59;;;;;;;16.65;3.70;;;;;;;7.14;100.00;98389.97;5070373;28;20071;-73
2023/03/10 05:08:24;;;;;;;19.30;3.50;;;;;;;7.15;100.00;98389.84;5054672;28;20348;-73
2023/03/10 05:10:49;;;;;;;15.90;3.70;;;;;;;7.15;100.00;98389.84;5051737;28;20051;-73
2023/03/10 05:13:15;;;;;;;18.48;3.83;;;;;;;7.13;100.00;98382.94;5050767;28;20021;-73
2023/03/10 05:15:41;;;;;;;24.45;4.50;;;;;;;7.14;100.00;98389.97;5070819;28;20024;-72
2023/03/10 05:18:07;;;;;;;25.40;4.00;;;;;;;7.12;100.00;98384.78;5071854;28;20029;-73
2023/03/10 05:20:33;;;;;;;18.95;4.22;;;;;;;7.11;100.00;98385.78;5071444;28;20032;-73
2023/03/10 05:22:58;;;;;;;17.83;4.22;;;;;;;7.11;100.00;98385.78;5052390;28;20035;-73
2023/03/10 05:25:24;;;;;;;18.85;3.92;;;;;;;7.13;100.00;98390.97;5071227;28;20048;-73
2023/03/10 05:27:49;;;;;;;16.83;4.40;;;;;;;7.13;100.00;98389.16;5066294;28;20479;-73
2023/03/10 05:30:15;;;;;;;20.95;4.28;;;;;;;7.14;100.00;98387.31;5046243;28;20020;-72
2023/03/10 05:32:41;;;;;;;18.83;4.57;;;;;;;7.12;100.00;98394.66;5068643;28;20027;-73
2023/03/10 05:35:08;;;;;;;19.33;4.70;;;;;;;7.11;100.00;98390.28;5051984;28;20086;-73
2023/03/10 05:37:38;;;;;;;20.02;4.53;;;;;;;7.12;100.00;98400.00;5070867;28;20484;-73
2023/03/10 05:40:11;;;;;;;22.73;4.32;;;;;;;7.13;100.00;98398.97;5074683;28;20016;-72
2023/03/10 05:42:37;;;;;;;14.30;4.10;;;;;;;7.13;100.00;98397.16;5022719;28;20041;-73
2023/03/10 05:45:04;;;;;;;18.50;4.55;;;;;;;7.14;100.00;98395.31;5051016;28;20032;-73
2023/03/10 05:47:30;;;;;;;16.75;4.10;;;;;;;7.14;100.00;98393.47;5070850;28;20028;-73
2023/03/10 05:49:55;;;;;;;15.18;4.45;;;;;;;7.13;100.00;98393.63;5048571;28;20033;-73
2023/03/10 05:52:20;;;;;;;19.52;3.75;;;;;;;7.12;100.00;98392.81;5053722;28;20028;-73
2023/03/10 05:54:46;;;;;;;17.98;4.82;;;;;;;7.13;100.00;98399.84;5072455;28;20036;-72
2023/03/10 05:57:11;;;;;;;19.63;4.45;;;;;;;7.14;100.00;98398.00;5071502;28;20020;-72
2023/03/10 05:59:36;;;;;;;20.02;4.47;;;;;;;7.14;100.00;98392.66;5051371;28;20017;-72
2023/03/10 06:02:01;;;;;;;17.95;3.97;;;;;;;7.12;100.00;98398.16;5049358;28;20025;-72
2023/03/10 06:04:31;;;;;;;23.02;5.20;;;;;;;7.14;100.00;98401.50;5053983;28;20036;-72
2023/03/10 06:06:56;;;;;;;14.82;3.78;;;;;;;7.14;100.00;98398.00;5071164;28;20054;-73
2023/03/10 06:09:21;;;;;;;18.08;4.18;;;;;;;7.15;100.00;98402.34;5070173;28;20108;-71
2023/03/10 06:11:47;;;;;;;18.38;4.57;;;;;;;7.14;100.00;98406.84;5068468;28;20035;-72
2023/03/10 06:14:12;;;;;;;20.88;5.05;;;;;;;7.13;100.00;98398.97;5052872;28;20043;-72
2023/03/10 06:16:37;;;;;;;21.95;4.95;;;;;;;7.13;100.00;98402.50;5053329;28;20491;-72
2023/03/10 06:19:02;;;;;;;18.42;4.40;;;;;;;7.13;100.00;98409.66;5071380;28;20115;-72
2023/03/10 06:21:28;;;;;;;19.23;4.22;;;;;;;7.15;100.00;98410.38;5070901;28;20063;-72
2023/03/10 06:23:53;;;;;;;17.80;4.82;;;;;;;7.15;100.00;98421.06;5072016;28;20104;-72
2023/03/10 06:26:18;;;;;;;19.77;4.15;;;;;;;7.17;100.00;98413.72;5070159;28;20082;-72
2023/03/10 06:28:45;;;;;;;18.15;4.90;;;;;;;7.17;100.00;98419.06;5061090;28;20031;-72
2023/03/10 06:31:18;;;;;;;16.45;4.15;;;;;;;7.18;100.00;98418.09;5068113;28;20028;-72
2023/03/10 06:33:43;;;;;;;14.00;4.05;;;;;;;7.20;100.00;98418.75;5062415;28;20034;-72
2023/03/10 06:36:13;;;;;;;17.35;4.35;;;;;;;7.23;100.00;98417.63;5044064;28;20111;-72
2023/03/10 06:38:39;;;;;;;13.10;3.50;;;;;;;7.23;100.00;98405.09;5066910;28;20109;-73
2023/03/10 06:41:05;;;;;;;17.92;4.20;;;;;;;7.20;100.00;98415.25;5042142;28;20056;-72
2023/03/10 06:43:32;;;;;;;13.13;3.45;;;;;;;7.19;100.00;98409.09;5040608;28;20028;-72
2023/03/10 06:45:58;;;;;;;14.90;3.45;;;;;;;7.19;100.00;98414.44;5049932;28;20035;-72
2023/03/10 06:48:24;;;;;;;11.65;3.33;;;;;;;7.19;100.00;98414.44;5066635;28;20033;-72
2023/03/10 06:50:49;;;;;;;12.43;3.30;;;;;;;7.19;100.00;98419.78;5055937;28;20442;-71
2023/03/10 06:53:18;;;;;;;12.10;3.42;;;;;;;7.17;100.00;98419.06;5058314;28;20020;-72
2023/03/10 06:55:44;;;;;;;15.15;3.88;;;;;;;7.15;100.00;98413.03;5069888;28;20464;-72
2023/03/10 06:58:09;;;;;;;17.40;3.97;;;;;;;7.15;100.00;98415.72;5076210;28;20040;-71
2023/03/10 07:00:34;;;;;;;14.70;3.30;;;;;;;7.13;100.00;98415.88;5054554;28;20476;-72
2023/03/10 07:03:00;;;;;;;17.33;3.53;;;;;;;7.16;100.00;98415.56;5074173;28;20032;-72
2023/03/10 07:05:26;;;;;;;15.50;3.78;;;;;;;7.17;100.00;98421.72;5069251;28;20070;-72
2023/03/10 07:07:54;;;;;;;13.02;3.80;;;;;;;7.21;100.00;98419.63;5075456;28;20033;-72
2023/03/10 07:10:20;;;;;;;13.88;3.78;;;;;;;7.27;100.00;98419.00;5070910;28;20107;-72
2023/03/10 07:12:48;;;;;;;17.08;4.13;;;;;;;7.27;100.00;98429.69;5070589;28;20446;-71
2023/03/10 07:15:13;;;;;;;17.02;4.43;;;;;;;7.31;100.00;98423.06;5068229;28;20027;-73
2023/03/10 07:17:39;;;;;;;15.95;3.58;;;;;;;7.34;100.00;98418.25;5075389;28;20032;-71
2023/03/10 07:20:05;;;;;;;20.38;5.07;;;;;;;7.38;100.00;98428.63;5075299;28;20053;-71
2023/03/10 07:22:30;;;;;;;18.13;3.85;;;;;;;7.42;100.00;98430.84;5073636;28;20028;-71
2023/03/10 07:24:56;;;;;;;19.63;4.20;;;;;;;7.46;100.00;98432.22;5075159;28;20032;-73
2023/03/10 07:27:22;;;;;;;25.23;4.55;;;;;;;7.48;100.00;98430.25;5055568;28;20021;-72
2023/03/10 07:29:47;;;;;;;18.15;4.43;;;;;;;7.55;100.00;98435.81;5048986;28;20173;-72
2023/03/10 07:32:14;;;;;;;20.83;4.53;;;;;;;7.61;100.00;98434.34;5051158;28;20024;-72
2023/03/10 07:34:40;;;;;;;23.67;4.15;;;;;;;7.70;100.00;98434.28;5067456;28;20025;-71
2023/03/10 07:37:05;;;;;;;13.38;3.47;;;;;;;7.78;100.00;98432.69;5075072;28;20555;-72
2023/03/10 07:39:30;;;;;;;13.27;3.55;;;;;;;7.85;100.00;98439.09;5074040;28;20105;-72
2023/03/10 07:41:56;;;;;;;16.33;4.10;;;;;;;7.92;100.00;98440.16;5041194;28;20599;-72
2023/03/10 07:44:21;;;;;;;14.95;4.00;;;;;;;7.96;100.00;98446.84;5048543;28;20024;-72
2023/03/10 07:46:46;;;;;;;20.70;3.80;;;;;;;7.99;100.00;98443.84;5064825;28;20434;-73
2023/03/10 07:49:12;;;;;;;19.98;3.78;;;;;;;8.03;100.00;98445.22;5073632;28;20055;-71
2023/03/10 07:51:37;;;;;;;14.50;3.45;;;;;;;8.09;100.00;98442.94;5069457;28;20025;-71
2023/03/10 07:54:03;;;;;;;21.00;3.88;;;;;;;8.15;100.00;98447.66;5053486;28;20047;-71
2023/03/10 07:56:28;;;;;;;17.90;4.32;;;;;;;8.16;100.00;98444.84;5053291;28;20029;-72
2023/03/10 07:58:54;;;;;;;13.52;3.13;;;;;;;8.17;100.00;98443.00;5054461;28;20028;-73
2023/03/10 08:01:20;;;;;;;15.60;3.28;;;;;;;8.19;100.00;98443.69;5051255;28;20089;-72
2023/03/10 08:03:46;;;;;;;13.30;3.05;;;;;;;8.18;100.00;98439.31;5054782;28;20032;-71
2023/03/10 08:06:21;;;;;;;14.55;3.30;;;;;;;8.21;100.00;98439.88;5042918;28;20446;-72
2023/03/10 08:08:46;;;;;;;21.88;4.30;;;;;;;8.26;100.00;98438.53;5046959;28;20033;-72
2023/03/10 08:11:12;;;;;;;12.45;3.33;;;;;;;8.30;100.00;98439.91;5027933;28;20110;-71
2023/03/10 08:13:37;;;;;;;17.63;3.30;;;;;;;8.34;100.00;98441.28;5051285;28;20376;-72
2023/03/10 08:16:03;;;;;;;16.33;3.65;;;;;;;8.35;100.00;98442.97;5032065;28;20029;-72
2023/03/10 08:18:30;;;;;;;13.55;3.45;;;;;;;8.40;100.00;98444.16;5033880;28;20052;-71
2023/03/10 08:20:56;;;;;;;12.82;3.15;;;;;;;8.45;100.00;98445.53;5032195;28;20068;-72
2023/03/10 08:23:22;;;;;;;11.52;2.97;;;;;;;8.48;100.00;98445.25;5025399;28;20130;-72
2023/03/10 08:25:47;;;;;;;13.05;3.22;;;;;;;8.50;100.00;98445.91;5050317;28;20033;-71
2023/03/10 08:28:12;;;;;;;17.10;3.97;;;;;;;8.49;100.00;98450.44;5041139;28;20021;-72
2023/03/10 08:30:39;;;;;;;14.65;3.58;;;;;;;8.53;100.00;98442.91;5054615;28;20025;-71
2023/03/10 08:33:07;;;;;;;18.27;3.70;;;;;;;8.57;100.00;98452.31;5054119;28;20013;-71
2023/03/10 08:35:34;;;;;;;14.52;3.20;;;;;;;8.55;100.00;98451.63;5054132;28;20025;-72
2023/03/10 08:37:59;;;;;;;17.60;3.95;;;;;;;8.58;100.00;98445.97;5054045;28;20542;-72
2023/03/10 08:40:25;;;;;;;20.35;4.53;;;;;;;8.62;100.00;98444.63;5035884;28;20020;-71
2023/03/10 08:42:50;;;;;;;15.50;3.33;;;;;;;8.65;100.00;98444.31;5034150;28;20099;-71
2023/03/10 08:45:16;;;;;;;17.13;3.22;;;;;;;8.69;100.00;98447.53;5016269;28;20028;-71
2023/03/10 08:47:42;;;;;;;17.55;3.85;;;;;;;8.74;100.00;98448.72;5034193;28;20061;-71
2023/03/10 08:50:08;;;;;;;18.30;3.28;;;;;;;8.80;100.00;98446.41;5047596;28;20413;-72
2023/03/10 08:52:33;;;;;;;16.27;3.83;;;;;;;8.86;100.00;98451.13;5052263;28;20098;-72
2023/03/10 08:54:59;;;;;;;14.15;3.45;;;;;;;8.94;100.00;98447.66;5052582;28;20407;-72
2023/03/10 08:57:24;;;;;;;15.38;3.25;;;;;;;8.96;100.00;98451.84;5049112;28;20041;-72
2023/03/10 08:59:50;;;;;;;16.10;3.38;;;;;;;8.98;100.00;98446.31;5035865;28;20025;-72
2023/03/10 09:02:16;;;;;;;16.38;3.42;;;;;;;8.98;100.00;98454.38;5053693;28;20100;-72
2023/03/10 09:04:42;;;;;;;18.77;3.55;;;;;;;8.98;100.00;98444.47;5035616;28;20021;-72
2023/03/10 09:07:08;;;;;;;16.58;3.00;;;;;;;9.01;100.00;98449.50;5035422;28;20139;-71
2023/03/10 09:09:34;;;;;;;16.42;3.63;;;;;;;9.02;100.00;98450.34;5053929;28;20037;-72
2023/03/10 09:11:59;;;;;;;19.35;3.83;;;;;;;9.03;100.00;98442.13;5053116;28;20135;-71
2023/03/10 09:14:24;;;;;;;15.90;3.28;;;;;;;9.06;100.00;98447.19;5053387;28;20031;-71
2023/03/10 09:16:50;;;;;;;15.52;3.30;;;;;;;9.09;100.00;98440.66;5035484;28;20119;-72
2023/03/10 09:19:15;;;;;;;18.52;3.58;;;;;;;9.10;100.00;98435.13;5047575;28;20420;-71
2023/03/10 09:21:41;;;;;;;15.57;3.17;;;;;;;9.14;100.00;98440.19;5047029;28;20385;-71
2023/03/10 09:24:07;;;;;;;13.63;3.30;;;;;;;9.13;100.00;98443.88;5053195;28;20025;-71
2023/03/10 09:26:33;;;;;;;10.02;2.88;;;;;;;9.12;100.00;98447.53;5052756;28;20495;-71
2023/03/10 09:28:59;;;;;;;13.27;3.47;;;;;;;9.09;100.00;98452.22;5031897;28;20469;-71
2023/03/10 09:31:29;;;;;;;14.27;3.60;;;;;;;9.05;100.00;98450.88;5035130;28;20024;-71
2023/03/10 09:33:54;;;;;;;;;;;;;;;9.09;100.00;98451.38;5035694;28;20025;-71
2023/03/10 09:36:19;;;;;;;13.75;3.25;;;;;;;9.03;100.00;98443.97;5036028;28;19920;-71
2023/03/10 09:38:45;;;;;;;13.57;3.25;;;;;;;9.01;100.00;98438.78;5036612;28;20033;-71
2023/03/10 09:41:58;;;;;;;13.98;2.85;;;;;;;9.00;100.00;98453.19;5033250;28;20099;-71
2023/03/10 09:44:29;;;;;;;17.13;2.88;;;;;;;8.98;100.00;98455.19;5049515;28;20067;-71
2023/03/10 09:47:11;;;;;;;16.95;3.03;;;;;;;9.00;100.00;98453.19;5049351;28;20025;-71
2023/03/10 09:49:41;;;;;;;16.55;3.63;;;;;;;9.00;100.00;98449.66;5050864;28;20444;-71
2023/03/10 09:52:22;;;;;;;16.88;3.80;;;;;;;9.02;100.00;98451.19;5051825;28;20029;-70
2023/03/10 09:55:05;;;;;;;12.43;2.85;;;;;;;9.05;100.00;98461.59;5052243;28;20021;-70
2023/03/10 09:57:32;;;;;;;20.85;3.40;;;;;;;9.07;100.00;98459.56;5049927;28;20119;-71
2023/03/10 10:00:07;;;;;;;17.58;3.38;;;;;;;9.10;100.00;98461.91;5023474;28;20025;-70
2023/03/10 10:02:45;;;;;;;21.05;3.83;;;;;;;9.12;100.00;98471.66;5028537;28;20483;-70
2023/03/10 10:05:22;;;;;;;14.07;3.30;;;;;;;9.12;100.00;98467.13;5037173;28;20080;-70
2023/03/10 10:07:54;;;;;;;12.23;3.00;;;;;;;9.15;100.00;98476.69;5070075;28;20024;-70
2023/03/10 10:10:25;;;;;;;15.77;3.58;;;;;;;9.12;100.00;98472.47;5068394;28;20054;-70
2023/03/10 10:12:53;;;;;;;16.92;3.90;;;;;;;9.12;100.00;98471.66;5066485;28;20020;-70
2023/03/10 10:15:24;;;;;;;18.48;4.07;;;;;;;9.05;100.00;98477.66;5062770;28;20028;-70
2023/03/10 10:18:06;;;;;;;12.15;3.28;;;;;;;8.99;100.00;98481.00;5069665;28;20037;-70
2023/03/10 10:20:37;;;;;;;13.75;3.25;;;;;;;8.94;100.00;98480.63;5052122;28;20129;-70
2023/03/10 10:23:11;;;;;;;20.40;4.05;;;;;;;8.86;100.00;98480.59;5071224;28;20024;-71
2023/03/10 10:25:37;;;;;;;16.42;3.67;;;;;;;8.84;100.00;98477.22;5053227;28;20138;-71
2023/03/10 10:28:11;;;;;;;16.60;3.25;;;;;;;8.79;100.00;98488.41;5048302;28;20048;-70
2023/03/10 10:30:38;;;;;;;13.48;3.47;;;;;;;8.77;100.00;98484.22;5056390;28;20021;-70
2023/03/10 10:33:12;;;;;;;13.98;3.72;;;;;;;8.76;100.00;98482.56;5072428;28;20016;-70
2023/03/10 10:35:40;;;;;;;16.42;3.60;;;;;;;8.76;100.00;98477.19;5072642;28;20032;-70
2023/03/10 10:38:17;;;;;;;14.35;3.75;;;;;;;8.79;100.00;98468.84;5060972;28;20102;-70
2023/03/10 10:40:50;;;;;;;15.82;4.13;;;;;;;8.79;100.00;98472.34;5037088;28;21071;-70
2023/03/10 10:43:20;;;;;;;13.63;3.22;;;;;;;8.81;100.00;98469.50;5072186;28;20032;-70
2023/03/10 10:46:02;;;;;;;16.52;3.70;;;;;;;8.81;100.00;98466.84;5054477;28;20103;-71
2023/03/10 10:48:38;;;;;;;14.30;3.55;;;;;;;8.82;100.00;98465.84;5072387;28;20029;-70
2023/03/10 10:51:17;;;;;;;22.55;5.20;;;;;;;8.83;100.00;98462.13;5072040;28;20463;-70
2023/03/10 10:53:42;;;;;;;20.60;4.60;;;;;;;8.82;100.00;98450.59;5066723;28;20083;-70
2023/03/10 10:56:16;;;;;;;13.63;3.55;;;;;;;8.83;100.00;98449.59;5051941;28;20025;-70
2023/03/10 10:59:01;;;;;;;19.40;4.47;;;;;;;8.82;100.00;98444.41;5034270;28;20546;-70
2023/03/10 11:01:44;;;;;;;15.23;4.28;;;;;;;8.83;100.00;98440.72;5054106;28;20123;-70
2023/03/10 11:04:11;;;;;;;17.35;4.28;;;;;;;8.83;100.00;98443.41;5072195;28;20182;-70
2023/03/10 11:06:37;;;;;;;21.95;3.90;;;;;;;8.80;100.00;98446.41;5071669;28;20508;-70
2023/03/10 11:09:19;;;;;;;16.42;4.53;;;;;;;8.81;100.00;98443.56;5072053;28;20021;-70
2023/03/10 11:12:18;;;;;;;13.68;3.38;;;;;;;8.82;100.00;98444.41;5042628;28;20124;-70
2023/03/10 11:14:56;;;;;;;12.38;3.35;;;;;;;8.83;100.00;98449.59;5034027;28;20029;-71
2023/03/10 11:17:37;;;;;;;17.48;3.50;;;;;;;8.82;100.00;98444.41;5034127;28;20055;-70
2023/03/10 11:20:26;;;;;;;18.00;3.67;;;;;;;8.84;100.00;98447.75;5033910;28;20462;-71
2023/03/10 11:22:58;;;;;;;12.70;3.15;;;;;;;8.82;100.00;98441.75;5033649;28;20025;-70
2023/03/10 11:25:45;;;;;;;9.18;2.60;;;;;;;8.83;100.00;98435.34;5051748;28;20147;-70